createdAt,value
2018-04-16T00:00:46.810Z,19.07
2018-04-16T00:03:14.369Z,18.50
2018-04-16T00:05:41.858Z,18.40
2018-04-16T00:08:09.376Z,19.80
2018-04-16T00:10:36.881Z,17.73
2018-04-16T00:13:04.388Z,18.93
2018-04-16T00:15:31.882Z,17.77
2018-04-16T00:17:59.378Z,18.83
2018-04-16T00:20:27.640Z,18.30
2018-04-16T00:22:55.126Z,19.33
2018-04-16T00:25:23.396Z,17.23
2018-04-16T00:27:51.660Z,17.17
2018-04-16T00:30:19.922Z,18.00
2018-04-16T00:32:53.182Z,17.30
2018-04-16T00:35:26.390Z,16.97
2018-04-16T00:37:59.647Z,18.03
2018-04-16T00:40:33.634Z,17.90
2018-04-16T00:43:06.936Z,16.73
2018-04-16T00:45:40.208Z,16.33
2018-04-16T00:48:14.143Z,15.93
2018-04-16T00:54:06.364Z,17.10
2018-04-16T00:56:40.416Z,16.63
2018-04-16T00:59:13.690Z,16.03
2018-04-16T01:01:46.863Z,18.40
2018-04-16T01:04:20.772Z,18.87
2018-04-16T01:06:53.968Z,17.87
2018-04-16T01:09:27.138Z,18.33
2018-04-16T01:12:01.195Z,18.47
2018-04-16T01:14:34.427Z,19.23
2018-04-16T01:17:07.667Z,17.67
2018-04-16T01:19:40.862Z,17.80
2018-04-16T01:22:14.088Z,19.17
2018-04-16T01:24:47.384Z,19.23
2018-04-16T01:27:20.544Z,18.13
2018-04-16T01:29:53.731Z,18.20
2018-04-16T01:32:26.874Z,19.37
2018-04-16T01:35:00.895Z,17.70
2018-04-16T01:37:33.995Z,17.87
2018-04-16T01:40:07.109Z,17.43
2018-04-16T01:42:40.400Z,16.90
2018-04-16T01:45:13.597Z,17.33
2018-04-16T01:47:46.643Z,17.07
2018-04-16T01:50:19.765Z,15.83
2018-04-16T01:52:52.896Z,15.13
2018-04-16T01:55:26.934Z,15.93
2018-04-16T01:58:00.182Z,15.27
2018-04-16T02:00:33.514Z,15.47
2018-04-16T02:03:06.751Z,16.40
2018-04-16T02:05:40.056Z,13.57
2018-04-16T02:08:13.496Z,13.60
2018-04-16T02:10:46.771Z,13.47
2018-04-16T02:13:20.789Z,13.20
2018-04-16T03:37:57.694Z,9.70
2018-04-16T03:40:30.925Z,11.87
2018-04-16T03:43:04.150Z,10.93
2018-04-16T03:45:37.380Z,8.50
2018-04-16T03:48:10.602Z,9.70
2018-04-16T03:50:43.946Z,12.57
2018-04-16T03:53:17.215Z,11.87
2018-04-16T03:55:49.447Z,9.70
2018-04-16T03:58:16.931Z,9.40
2018-04-16T04:00:44.486Z,8.33
2018-04-16T04:03:12.868Z,10.30
2018-04-16T04:05:40.428Z,10.20
2018-04-16T04:08:07.982Z,9.47
2018-04-16T04:10:36.257Z,8.43
2018-04-16T04:13:03.768Z,8.63
2018-04-16T04:15:31.245Z,7.23
2018-04-16T04:17:58.747Z,8.50
2018-04-16T04:20:26.244Z,8.50
2018-04-16T04:23:05.702Z,5.80
2018-04-16T04:25:45.801Z,7.97
2018-04-16T04:28:25.226Z,9.23
2018-04-16T04:30:52.768Z,10.37
2018-04-16T04:33:20.311Z,7.90
2018-04-16T04:35:48.582Z,7.07
2018-04-16T04:38:16.828Z,7.53
2018-04-16T04:40:44.334Z,6.63
2018-04-16T04:43:11.830Z,9.97
2018-04-16T04:45:39.328Z,9.00
2018-04-16T04:48:07.598Z,6.27
2018-04-16T04:50:35.861Z,7.53
2018-04-16T04:53:03.398Z,6.60
2018-04-16T04:55:30.884Z,7.80
2018-04-16T04:57:59.161Z,8.77
2018-04-16T05:00:27.412Z,7.93
2018-04-16T05:02:54.922Z,7.37
2018-04-16T05:05:22.420Z,10.67
2018-04-16T05:07:49.920Z,10.73
2018-04-16T05:10:17.481Z,7.13
2018-04-16T05:12:44.986Z,8.90
2018-04-16T05:15:12.485Z,9.43
2018-04-16T05:17:40.735Z,7.80
2018-04-16T05:20:09.738Z,11.80
2018-04-16T05:22:37.999Z,12.47
2018-04-16T05:25:05.499Z,8.83
2018-04-16T05:27:32.996Z,6.77
2018-04-16T05:30:00.506Z,8.30
2018-04-16T05:32:28.013Z,7.77
2018-04-16T05:34:57.020Z,6.67
2018-04-16T05:37:24.617Z,10.10
2018-04-16T05:39:52.110Z,10.47
2018-04-16T05:42:19.608Z,10.13
2018-04-16T05:44:47.886Z,7.00
2018-04-16T05:47:16.296Z,10.60
2018-04-16T05:49:43.858Z,9.90
2018-04-16T05:52:11.348Z,12.70
2018-04-16T05:54:40.352Z,10.67
2018-04-16T05:57:07.841Z,9.10
2018-04-16T05:59:35.386Z,9.10
2018-04-16T06:02:03.671Z,10.53
2018-04-16T06:04:31.150Z,12.10
2018-04-16T06:06:58.651Z,8.40
2018-04-16T06:09:26.229Z,9.27
2018-04-16T06:11:54.485Z,9.07
2018-04-16T06:14:22.080Z,9.10
2018-04-16T06:16:49.563Z,9.07
2018-04-16T06:19:17.088Z,11.00
2018-04-16T06:21:44.593Z,11.93
2018-04-16T06:24:12.200Z,9.90
2018-04-16T06:26:39.750Z,12.30
2018-04-16T06:29:07.999Z,12.77
2018-04-16T06:31:35.518Z,11.40
2018-04-16T06:34:03.023Z,14.13
2018-04-16T06:36:30.536Z,12.60
2018-04-16T06:38:58.052Z,14.13
2018-04-16T06:41:26.314Z,14.40
2018-04-16T06:43:54.607Z,13.80
2018-04-16T06:46:22.897Z,14.57
2018-04-16T06:48:50.397Z,15.20
2018-04-16T06:51:17.910Z,16.17
2018-04-16T06:53:45.405Z,15.60
2018-04-16T06:56:12.919Z,16.43
2018-04-16T06:58:40.440Z,17.33
2018-04-16T07:01:08.843Z,18.37
2018-04-16T07:03:36.353Z,19.87
2018-04-16T07:06:03.879Z,20.83
2018-04-16T07:08:31.425Z,21.80
2018-04-16T07:10:58.928Z,22.77
2018-04-16T07:13:26.423Z,21.50
2018-04-16T07:15:54.723Z,23.27
2018-04-16T07:18:22.245Z,26.37
2018-04-16T07:20:50.553Z,23.90
2018-04-16T07:23:18.101Z,24.50
2018-04-16T07:25:45.643Z,25.30
2018-04-16T07:28:13.897Z,26.07
2018-04-16T07:30:41.393Z,26.30
2018-04-16T07:33:08.920Z,26.27
2018-04-16T07:35:37.214Z,27.17
2018-04-16T07:38:04.789Z,28.57
2018-04-16T07:40:32.332Z,27.17
2018-04-16T07:42:59.883Z,29.70
2018-04-16T07:45:27.388Z,29.30
2018-04-16T07:47:54.897Z,30.30
2018-04-16T07:50:22.475Z,30.47
2018-04-16T07:52:50.019Z,29.03
2018-04-16T07:55:17.570Z,30.03
2018-04-16T07:57:45.968Z,30.37
2018-04-16T08:00:13.516Z,28.80
2018-04-16T08:02:41.006Z,30.30
2018-04-16T08:05:08.506Z,32.10
2018-04-16T08:07:36.762Z,30.63
2018-04-16T08:10:04.301Z,32.20
2018-04-16T08:12:31.825Z,32.27
2018-04-16T08:14:59.321Z,22.03
2018-04-16T08:17:26.819Z,19.77
2018-04-16T08:19:55.087Z,25.53
2018-04-16T08:22:23.424Z,27.73
2018-04-16T08:24:50.928Z,28.83
2018-04-16T08:27:18.434Z,28.97
2018-04-16T08:29:45.955Z,30.33
2018-04-16T08:32:13.520Z,29.90
2018-04-16T08:34:41.010Z,29.50
2018-04-16T08:37:08.528Z,28.80
2018-04-16T08:39:36.032Z,27.43
2018-04-16T08:42:03.610Z,29.67
2018-04-16T08:44:31.921Z,31.00
2018-04-16T08:46:59.435Z,29.93
2018-04-16T08:49:26.934Z,29.70
2018-04-16T08:51:54.424Z,32.80
2018-04-16T08:54:21.922Z,30.87
2018-04-16T08:56:50.178Z,27.87
2018-04-16T08:59:19.195Z,28.63
2018-04-16T09:01:46.718Z,27.43
2018-04-16T09:04:15.743Z,28.30
2018-04-16T09:06:43.300Z,26.47
2018-04-16T09:09:10.864Z,30.30
2018-04-16T09:11:38.410Z,27.20
2018-04-16T09:14:06.701Z,30.27
2018-04-16T09:16:34.196Z,27.80
2018-04-16T09:19:01.775Z,26.13
2018-04-16T09:21:29.300Z,27.90
2018-04-16T09:23:56.798Z,27.23
2018-04-16T09:26:25.090Z,26.93
2018-04-16T09:28:52.583Z,25.50
2018-04-16T09:31:20.179Z,28.20
2018-04-16T09:33:47.765Z,24.87
2018-04-16T09:36:15.258Z,26.37
2018-04-16T09:38:42.882Z,26.70
2018-04-16T09:41:10.429Z,25.57
2018-04-16T09:43:38.714Z,23.47
2018-04-16T09:46:06.289Z,26.10
2018-04-16T09:48:33.820Z,25.23
2018-04-16T09:51:02.093Z,27.60
2018-04-16T09:53:30.365Z,26.40
2018-04-16T09:55:58.791Z,26.43
2018-04-16T09:58:26.312Z,27.90
2018-04-16T10:00:54.595Z,26.70
2018-04-16T10:03:22.901Z,28.67
2018-04-16T10:05:50.382Z,26.93
2018-04-16T10:08:17.870Z,26.90
2018-04-16T10:10:46.152Z,25.33
2018-04-16T10:13:13.657Z,27.70
2018-04-16T10:15:41.172Z,26.10
2018-04-16T10:18:08.720Z,25.00
2018-04-16T10:20:36.222Z,26.80
2018-04-16T10:23:03.962Z,25.90
2018-04-16T10:25:31.480Z,24.47
2018-04-16T10:27:59.767Z,23.47
2018-04-16T10:30:28.012Z,23.50
2018-04-16T10:32:55.524Z,22.50
2018-04-16T10:35:23.014Z,23.80
2018-04-16T10:37:50.526Z,21.03
2018-04-16T10:40:18.033Z,23.37
2018-04-16T10:42:45.599Z,21.47
2018-04-16T10:45:13.192Z,22.73
2018-04-16T10:47:40.730Z,24.23
2018-04-16T10:50:09.007Z,21.13
2018-04-16T10:52:37.266Z,23.57
2018-04-16T10:55:04.859Z,24.80
2018-04-16T10:57:32.349Z,22.37
2018-04-16T10:59:59.858Z,24.97
2018-04-16T11:02:28.124Z,26.33
2018-04-16T11:04:56.420Z,27.07
2018-04-16T11:07:23.974Z,27.90
2018-04-16T11:09:51.528Z,28.13
2018-04-16T11:12:19.067Z,25.77
2018-04-16T11:14:47.349Z,26.77
2018-04-16T11:17:15.626Z,23.23
2018-04-16T11:19:43.908Z,24.80
2018-04-16T11:22:11.425Z,23.53
2018-04-16T11:24:38.924Z,23.93
2018-04-16T11:27:06.430Z,23.10
2018-04-16T11:29:33.914Z,24.03
2018-04-16T11:32:01.436Z,23.60
2018-04-16T11:34:28.950Z,23.10
2018-04-16T11:36:56.535Z,23.23
2018-04-16T11:39:24.040Z,21.57
2018-04-16T11:41:51.629Z,23.13
2018-04-16T11:44:19.131Z,24.07
2018-04-16T11:46:46.655Z,26.23
2018-04-16T11:49:14.162Z,22.30
2018-04-16T11:51:41.673Z,24.20
2018-04-16T11:54:09.182Z,22.23
2018-04-16T11:56:36.696Z,21.40
2018-04-16T11:59:04.203Z,23.90
2018-04-16T12:01:32.480Z,22.53
2018-04-16T12:04:00.743Z,22.13
2018-04-16T12:06:28.246Z,22.43
2018-04-16T12:08:55.787Z,22.63
2018-04-16T12:11:23.300Z,23.83
2018-04-16T12:13:50.789Z,21.47
2018-04-16T12:16:19.057Z,22.27
2018-04-16T12:18:47.332Z,21.00
2018-04-16T12:21:15.715Z,22.13
2018-04-16T12:23:43.240Z,21.27
2018-04-16T12:26:11.548Z,18.43
2018-04-16T12:28:39.797Z,18.00
2018-04-16T12:31:07.387Z,19.97
2018-04-16T12:33:34.889Z,22.80
2018-04-16T12:36:02.388Z,21.40
2018-04-16T12:38:30.653Z,23.87
2018-04-16T12:40:58.151Z,21.63
2018-04-16T12:43:25.660Z,22.57
2018-04-16T12:45:53.248Z,24.70
2018-04-16T12:48:20.744Z,25.20
2018-04-16T12:50:48.379Z,28.23
2018-04-16T12:53:15.933Z,21.27
2018-04-16T12:55:43.441Z,21.57
2018-04-16T12:58:10.961Z,20.10
2018-04-16T13:00:38.483Z,20.70
2018-04-16T13:03:06.016Z,21.03
2018-04-16T13:05:33.548Z,19.83
2018-04-16T13:08:01.059Z,21.60
2018-04-16T13:10:28.619Z,22.00
2018-04-16T13:12:56.141Z,21.73
2018-04-16T13:15:23.622Z,20.67
2018-04-16T13:17:51.962Z,20.30
2018-04-16T13:20:19.460Z,19.50
2018-04-16T13:22:47.006Z,17.70
2018-04-16T13:25:15.290Z,18.23
2018-04-16T13:27:43.556Z,16.57
2018-04-16T13:30:11.831Z,17.10
2018-04-16T13:32:40.086Z,16.97
2018-04-16T13:35:07.603Z,15.77
2018-04-16T13:37:35.100Z,17.90
2018-04-16T13:40:02.605Z,17.80
2018-04-16T13:45:21.327Z,14.60
2018-04-16T13:47:48.931Z,19.37
2018-04-16T13:50:16.447Z,16.03
2018-04-16T13:52:44.708Z,18.87
2018-04-16T13:55:12.308Z,19.20
2018-04-16T13:57:39.887Z,20.10
2018-04-16T14:00:07.439Z,20.43
2018-04-16T14:02:34.981Z,20.20
2018-04-16T14:05:02.491Z,18.80
2018-04-16T14:07:29.987Z,17.83
2018-04-16T14:09:58.357Z,18.10
2018-04-16T14:12:26.652Z,15.80
2018-04-16T14:14:54.162Z,15.40
2018-04-16T14:17:21.756Z,16.07
2018-04-16T14:19:49.306Z,15.50
2018-04-16T14:22:17.568Z,11.90
2018-04-16T14:24:45.838Z,12.77
2018-04-16T14:27:13.338Z,14.10
2018-04-16T14:29:40.821Z,12.40
2018-04-16T14:32:08.427Z,13.03
2018-04-16T14:34:36.678Z,10.60
2018-04-16T14:37:04.183Z,11.93
2018-04-16T14:39:31.711Z,11.93
2018-04-16T14:41:59.969Z,10.53
2018-04-16T14:44:27.556Z,11.13
2018-04-16T14:46:55.051Z,11.40
2018-04-16T14:49:22.581Z,10.80
2018-04-16T14:51:50.616Z,11.63
2018-04-16T14:54:18.880Z,11.30
2018-04-16T14:56:46.431Z,12.27
2018-04-16T14:59:13.894Z,15.23
2018-04-16T15:01:41.405Z,11.87
2018-04-16T15:04:08.904Z,12.77
2018-04-16T15:06:37.170Z,12.23
2018-04-16T15:09:05.518Z,11.73
2018-04-16T15:11:33.032Z,10.80
2018-04-16T15:14:01.311Z,13.43
2018-04-16T15:16:29.582Z,12.80
2018-04-16T15:18:57.837Z,11.40
2018-04-16T15:21:25.346Z,17.10
2018-04-16T15:23:52.902Z,12.70
2018-04-16T15:26:20.430Z,13.07
2018-04-16T15:28:48.703Z,13.77
2018-04-16T15:31:16.969Z,14.40
2018-04-16T15:33:45.271Z,12.83
2018-04-16T15:36:12.766Z,13.20
2018-04-16T15:38:40.378Z,12.90
2018-04-16T15:41:08.642Z,14.90
2018-04-16T15:43:36.907Z,13.67
2018-04-16T15:46:05.194Z,14.77
2018-04-16T15:48:32.719Z,13.37
2018-04-16T15:51:00.310Z,13.40
2018-04-16T15:53:28.685Z,12.20
2018-04-16T15:55:56.965Z,13.20
2018-04-16T15:58:24.471Z,11.83
2018-04-16T16:00:51.981Z,11.50
2018-04-16T16:03:19.535Z,11.13
2018-04-16T16:05:47.824Z,11.23
2018-04-16T16:08:15.321Z,12.10
2018-04-16T16:10:42.815Z,11.60
2018-04-16T16:13:11.091Z,12.27
2018-04-16T16:15:39.356Z,12.80
2018-04-16T16:18:07.618Z,13.37
2018-04-16T16:20:35.110Z,11.00
2018-04-16T16:23:02.610Z,12.50
2018-04-16T16:25:30.214Z,12.83
2018-04-16T16:27:58.481Z,12.33
2018-04-16T16:30:26.742Z,11.53
2018-04-16T16:32:54.236Z,10.60
2018-04-16T16:35:21.753Z,11.13
2018-04-16T16:37:49.238Z,10.53
2018-04-16T16:40:17.515Z,11.80
2018-04-16T16:42:45.051Z,13.00
2018-04-16T16:45:13.318Z,12.50
2018-04-16T16:47:40.825Z,12.43
2018-04-16T16:50:08.358Z,12.87
2018-04-16T16:52:36.740Z,12.00
2018-04-16T16:55:04.255Z,12.57
2018-04-16T16:57:31.826Z,12.73
2018-04-16T16:59:59.990Z,12.13
2018-04-16T17:02:28.468Z,11.47
2018-04-16T17:04:55.907Z,12.77
2018-04-16T17:07:23.397Z,11.10
2018-04-16T17:09:51.655Z,5.90
2018-04-16T17:12:19.134Z,6.53
2018-04-16T17:14:47.400Z,6.37
2018-04-16T17:17:15.681Z,7.03
2018-04-16T17:19:43.968Z,6.27
2018-04-16T17:22:11.530Z,5.70
2018-04-16T17:24:39.032Z,7.50
2018-04-16T17:27:06.520Z,8.53
2018-04-16T17:29:34.816Z,8.60
2018-04-16T17:32:02.298Z,8.77
2018-04-16T17:34:29.790Z,9.90
2018-04-16T17:36:57.329Z,11.53
2018-04-16T17:39:24.840Z,13.60
2018-04-16T17:41:52.342Z,12.53
2018-04-16T17:44:19.836Z,12.67
2018-04-16T17:46:48.239Z,13.63
2018-04-16T17:49:15.788Z,13.07
2018-04-16T17:51:43.273Z,14.20
2018-04-16T17:54:10.822Z,15.80
2018-04-16T17:56:38.332Z,14.37
2018-04-16T17:59:05.844Z,14.70
2018-04-16T18:01:33.372Z,15.00
2018-04-16T18:04:00.922Z,14.43
2018-04-16T18:06:29.183Z,35.00
2018-04-16T18:08:57.642Z,20.60
2018-04-16T18:11:25.237Z,14.27
2018-04-16T18:13:53.613Z,14.30
2018-04-16T18:16:21.996Z,15.60
2018-04-16T18:18:49.477Z,15.07
2018-04-16T18:21:16.977Z,16.37
2018-04-16T18:23:44.485Z,12.93
2018-04-16T18:26:11.982Z,14.00
2018-04-16T18:28:39.499Z,12.70
2018-04-16T18:31:06.999Z,11.33
2018-04-16T18:33:34.616Z,11.53
2018-04-16T18:36:02.502Z,13.00
2018-04-16T18:38:30.002Z,14.67
2018-04-16T18:40:58.285Z,16.50
2018-04-16T18:43:26.542Z,16.27
2018-04-16T18:45:54.042Z,18.20
2018-04-16T18:48:21.543Z,18.23
2018-04-16T18:50:49.088Z,19.03
2018-04-16T18:53:16.591Z,17.73
2018-04-16T18:55:44.849Z,18.17
2018-04-16T18:58:13.122Z,17.83
2018-04-16T19:00:41.410Z,16.60
2018-04-16T19:03:09.699Z,17.13
2018-04-16T19:05:37.205Z,19.47
2018-04-16T19:08:04.720Z,16.93
2018-04-16T19:10:32.232Z,16.80
2018-04-16T19:12:59.754Z,16.37
2018-04-16T19:15:27.437Z,17.43
2018-04-16T19:17:57.874Z,17.37
2018-04-16T19:20:31.074Z,16.80
2018-04-16T19:22:59.368Z,16.37
2018-04-16T19:25:26.885Z,14.43
2018-04-16T19:28:00.114Z,15.40
2018-04-16T19:30:28.396Z,15.90
2018-04-16T19:33:01.730Z,14.27
2018-04-16T19:35:29.245Z,14.50
2018-04-16T19:37:56.791Z,12.70
2018-04-16T19:40:25.157Z,11.80
2018-04-16T19:42:53.418Z,10.40
2018-04-16T19:45:21.001Z,11.30
2018-04-16T19:47:49.259Z,9.30
2018-04-16T19:50:16.838Z,9.60
2018-04-16T19:52:45.908Z,8.90
2018-04-16T19:55:13.500Z,10.20
2018-04-16T19:57:46.683Z,9.53
2018-04-16T20:00:14.939Z,9.50
2018-04-16T20:02:48.878Z,9.90
2018-04-16T20:05:16.406Z,10.07
2018-04-16T20:07:44.674Z,10.27
2018-04-16T20:10:12.226Z,9.03
2018-04-16T20:12:39.688Z,9.63
2018-04-16T20:15:07.989Z,9.80
2018-04-16T20:17:35.549Z,9.53
2018-04-16T20:20:03.042Z,8.67
2018-04-16T20:22:30.522Z,9.30
2018-04-16T20:24:58.129Z,10.10
2018-04-16T20:27:25.638Z,10.00
2018-04-16T20:29:54.159Z,9.83
2018-04-16T20:32:21.654Z,10.07
2018-04-16T20:34:49.182Z,11.73
2018-04-16T20:37:16.675Z,11.27
2018-04-16T20:39:44.311Z,12.40
2018-04-16T20:42:11.831Z,12.30
2018-04-16T20:44:40.108Z,11.77
2018-04-16T20:47:08.487Z,12.20
2018-04-16T20:49:36.762Z,12.00
2018-04-16T20:52:05.144Z,14.03
2018-04-16T20:54:32.656Z,14.17
2018-04-16T20:57:00.145Z,13.50
2018-04-16T20:59:28.549Z,14.73
2018-04-16T21:01:56.048Z,15.17
2018-04-16T21:04:23.554Z,14.53
2018-04-16T21:06:51.069Z,17.17
2018-04-16T21:09:18.658Z,16.37
2018-04-16T21:11:46.215Z,17.57
2018-04-16T21:14:13.769Z,16.57
2018-04-16T21:16:42.037Z,16.30
2018-04-16T21:19:10.327Z,18.50
2018-04-16T21:21:37.821Z,17.27
2018-04-16T21:24:05.316Z,18.73
2018-04-16T21:26:33.596Z,18.17
2018-04-16T21:29:01.888Z,19.90
2018-04-16T21:31:29.391Z,18.30
2018-04-16T21:33:56.890Z,18.40
2018-04-16T21:36:25.155Z,17.83
2018-04-16T21:38:53.427Z,19.80
2018-04-16T21:41:21.718Z,17.90
2018-04-16T21:43:50.098Z,18.53
2018-04-16T21:46:18.349Z,19.30
2018-04-16T21:48:45.884Z,20.23
2018-04-16T21:51:13.382Z,18.20
2018-04-16T21:53:41.666Z,21.07
2018-04-16T21:56:09.213Z,19.43
2018-04-16T21:58:37.514Z,20.73
2018-04-16T22:01:05.020Z,19.17
2018-04-16T22:03:32.614Z,19.37
2018-04-16T22:06:00.110Z,19.47
2018-04-16T22:08:27.611Z,19.73
2018-04-16T22:10:55.886Z,19.47
2018-04-16T22:13:24.140Z,20.20
2018-04-16T22:15:51.731Z,20.33
2018-04-16T22:18:19.223Z,19.30
2018-04-16T22:20:46.845Z,19.00
2018-04-16T22:23:15.112Z,19.13
2018-04-16T22:25:43.399Z,21.57
2018-04-16T22:28:10.941Z,19.73
2018-04-16T22:30:39.195Z,19.77
2018-04-16T22:33:06.709Z,23.67
2018-04-16T22:35:34.222Z,21.07
2018-04-16T22:38:02.490Z,21.17
2018-04-16T22:40:29.992Z,20.13
2018-04-16T22:42:57.495Z,20.50
2018-04-16T22:45:25.090Z,20.30
2018-04-16T22:47:52.596Z,18.53
2018-04-16T22:50:20.114Z,19.67
2018-04-16T22:52:47.620Z,20.60
2018-04-16T22:55:15.130Z,20.63
2018-04-16T22:57:42.657Z,19.70
2018-04-16T23:00:10.907Z,20.80
2018-04-16T23:02:38.409Z,21.00
2018-04-16T23:05:05.910Z,22.20
2018-04-16T23:07:33.413Z,19.90
2018-04-16T23:10:01.665Z,20.60
2018-04-16T23:12:29.248Z,20.00
2018-04-16T23:14:56.743Z,21.73
2018-04-16T23:17:24.263Z,19.57
2018-04-16T23:19:51.755Z,20.50
2018-04-16T23:22:19.239Z,21.03
2018-04-16T23:24:46.748Z,20.50
2018-04-16T23:27:14.280Z,22.43
2018-04-16T23:29:41.775Z,22.47
2018-04-16T23:32:09.300Z,22.30
2018-04-16T23:34:36.812Z,24.17
2018-04-16T23:37:04.311Z,23.83
2018-04-16T23:39:31.828Z,22.10
2018-04-16T23:41:59.417Z,22.43
2018-04-16T23:44:27.805Z,23.77
2018-04-16T23:46:56.064Z,24.67
2018-04-16T23:49:24.344Z,24.33
2018-04-16T23:51:52.640Z,23.83
2018-04-16T23:54:20.130Z,24.90
2018-04-16T23:56:47.636Z,24.73
2018-04-16T23:59:15.895Z,23.73
